Details for BA CityFlyer at EGLC




Go Back


Latest METAR
Local Time

EGLC 061720Z AUTO 27010KT 9999 NCD 16/03 Q1021
06/04/2020, 18:38:21

Description
Results
BA CityFlyer Logo
Number of Pilots based at EGLC
0 Pilots Based here
Number of BA CityFlyer Flights Departed from EGLC
2 Flights Departed
Number of BA CityFlyer Flights Arrived at EGLC
2 Flights Arrived
Number of BA CityFlyer Schedules Departing from EGLC
131 Schedules
Number of BA CityFlyer Schedules Arriving at EGLC
139 Schedules
Number of BA CityFlyer Schedules Departing from EGLC availible today
72 Schedules Today
Number of BA CityFlyer Schedules Arriving at EGLC availible today
72 Schedules Today
Average Landing Rate at EGLC
-399 fpm
BA CityFlyer Average Landing Rate at EGLC
-401 fpm
Total Fuel Purchased at EGLC by BA CityFlyer
2,695.25 kgs / 5,941.95 lbs

Pilots Based at EGLC


Pilot ID
Pilot Name
Pilot Rank
No. of Flights
No. of Flying Hours
There are no pilots assigned to this hub!   Will you be the first?